createdAt,value
2022-09-21T00:00:05.349Z,16.10
2022-09-21T00:02:35.929Z,16.19
2022-09-21T00:05:05.873Z,16.31
2022-09-21T00:07:36.020Z,16.38
2022-09-21T00:10:06.569Z,16.44
2022-09-21T00:12:39.898Z,16.52
2022-09-21T00:15:12.695Z,16.63
2022-09-21T00:17:43.402Z,16.72
2022-09-21T00:20:13.880Z,16.81
2022-09-21T00:22:44.334Z,16.89
2022-09-21T00:25:14.801Z,16.97
2022-09-21T00:27:45.121Z,17.05
2022-09-21T00:30:15.083Z,17.15
2022-09-21T00:32:45.901Z,17.24
2022-09-21T00:35:16.131Z,17.33
2022-09-21T00:37:46.996Z,17.44
2022-09-21T00:40:17.408Z,17.54
2022-09-21T00:42:48.040Z,17.62
2022-09-21T00:45:28.282Z,17.73
2022-09-21T00:47:58.713Z,17.82
2022-09-21T00:50:31.558Z,17.87
2022-09-21T00:53:02.528Z,17.87
2022-09-21T00:55:45.018Z,17.88
2022-09-21T00:58:25.527Z,17.95
2022-09-21T01:00:57.647Z,18.04
2022-09-21T01:03:28.263Z,18.13
2022-09-21T01:06:00.072Z,18.22
2022-09-21T01:08:31.887Z,18.31
2022-09-21T01:11:39.410Z,18.41
2022-09-21T01:14:22.312Z,18.50
2022-09-21T01:16:55.707Z,18.59
2022-09-21T01:19:44.159Z,18.68
2022-09-21T01:22:45.333Z,18.78
2022-09-21T01:25:39.998Z,18.89
2022-09-21T01:28:42.938Z,18.98
2022-09-21T01:31:19.201Z,19.05
2022-09-21T01:33:56.623Z,19.18
2022-09-21T01:36:32.972Z,19.25
2022-09-21T01:39:15.680Z,19.34
2022-09-21T01:41:48.996Z,19.42
2022-09-21T01:44:21.169Z,19.51
2022-09-21T01:46:54.324Z,19.60
2022-09-21T01:49:48.195Z,19.70
2022-09-21T01:52:44.710Z,19.78
2022-09-21T01:55:20.811Z,19.85
2022-09-21T01:58:03.965Z,19.92
2022-09-21T02:00:36.781Z,19.97
2022-09-21T02:03:24.086Z,20.04
2022-09-21T02:05:55.128Z,20.13
2022-09-21T02:08:29.476Z,20.20
2022-09-21T02:11:02.329Z,20.25
2022-09-21T02:13:46.235Z,20.31
2022-09-21T02:16:37.879Z,20.36
2022-09-21T02:19:33.544Z,20.42
2022-09-21T02:22:13.944Z,20.49
2022-09-21T02:24:53.458Z,20.55
2022-09-21T02:27:44.764Z,20.62
2022-09-21T02:30:22.987Z,20.69
2022-09-21T02:33:14.418Z,20.75
2022-09-21T02:36:14.113Z,20.82
2022-09-21T02:38:58.838Z,20.88
2022-09-21T02:41:36.085Z,20.93
2022-09-21T02:44:18.314Z,20.99
2022-09-21T02:47:27.285Z,21.07
2022-09-21T02:50:04.849Z,21.14
2022-09-21T02:52:37.125Z,21.16
2022-09-21T02:55:08.913Z,21.19
2022-09-21T02:57:40.363Z,21.24
2022-09-21T03:00:10.140Z,21.27
2022-09-21T03:02:42.687Z,21.31
2022-09-21T03:05:13.544Z,21.36
2022-09-21T03:07:44.155Z,21.40
2022-09-21T03:10:15.047Z,21.46
2022-09-21T03:12:46.013Z,21.52
2022-09-21T03:15:19.504Z,21.58
2022-09-21T03:17:49.577Z,21.63
2022-09-21T03:20:20.598Z,21.68
2022-09-21T03:22:50.788Z,21.73
2022-09-21T03:25:22.752Z,21.78
2022-09-21T03:27:55.521Z,21.83
2022-09-21T03:30:27.582Z,21.89
2022-09-21T03:32:58.384Z,21.93
2022-09-21T03:35:30.450Z,21.98
2022-09-21T03:38:00.876Z,22.00
2022-09-21T03:40:31.551Z,22.02
2022-09-21T03:43:02.600Z,22.03
2022-09-21T03:45:32.904Z,22.07
2022-09-21T03:48:04.009Z,22.08
2022-09-21T03:50:35.349Z,22.12
2022-09-21T03:53:06.947Z,22.15
2022-09-21T03:55:38.440Z,22.13
2022-09-21T03:58:08.799Z,22.16
2022-09-21T04:00:40.516Z,22.19
2022-09-21T04:03:10.282Z,22.22
2022-09-21T04:05:41.365Z,22.23
2022-09-21T04:08:11.422Z,22.24
2022-09-21T04:10:44.941Z,22.25
2022-09-21T04:13:16.114Z,22.27
2022-09-21T04:15:46.472Z,22.27
2022-09-21T04:18:17.235Z,22.29
2022-09-21T04:20:47.484Z,22.29
2022-09-21T04:23:17.601Z,22.31
2022-09-21T04:25:49.182Z,22.36
2022-09-21T04:28:19.354Z,22.37
2022-09-21T04:30:49.549Z,22.39
2022-09-21T04:33:19.609Z,22.42
2022-09-21T04:35:50.046Z,22.45
2022-09-21T04:38:20.173Z,22.45
2022-09-21T04:40:58.881Z,22.48
2022-09-21T04:43:28.965Z,22.52
2022-09-21T04:45:59.404Z,22.53
2022-09-21T04:48:29.416Z,22.56
2022-09-21T04:51:01.600Z,22.59
2022-09-21T04:53:32.471Z,22.64
2022-09-21T04:56:02.761Z,22.67
2022-09-21T04:58:32.655Z,22.71
2022-09-21T05:01:03.740Z,22.73
2022-09-21T05:03:34.169Z,22.74
2022-09-21T05:06:04.439Z,22.76
2022-09-21T05:08:52.420Z,22.80
2022-09-21T05:11:22.568Z,22.82
2022-09-21T05:13:53.576Z,22.86
2022-09-21T05:16:24.866Z,22.90
2022-09-21T05:18:58.749Z,22.93
2022-09-21T05:21:32.172Z,22.97
2022-09-21T05:24:02.446Z,23.00
2022-09-21T05:26:32.636Z,23.03
2022-09-21T05:29:02.936Z,23.05
2022-09-21T05:31:47.148Z,23.12
2022-09-21T05:34:26.032Z,23.14
2022-09-21T05:37:16.556Z,23.19
2022-09-21T05:39:46.997Z,23.21
2022-09-21T05:42:17.617Z,23.23
2022-09-21T05:44:50.545Z,23.28
2022-09-21T05:47:42.079Z,23.32
2022-09-21T05:50:21.098Z,23.37
2022-09-21T05:53:08.367Z,23.42
2022-09-21T05:56:00.173Z,23.46
2022-09-21T05:59:00.891Z,23.53
2022-09-21T06:01:33.350Z,23.55
2022-09-21T06:04:04.484Z,23.59
2022-09-21T06:06:34.647Z,23.67
2022-09-21T06:09:04.696Z,23.73
2022-09-21T06:11:35.093Z,23.78
2022-09-21T06:14:05.476Z,23.86
2022-09-21T06:16:43.560Z,23.91
2022-09-21T06:19:15.399Z,23.98
2022-09-21T06:21:48.806Z,24.03
2022-09-21T06:24:25.739Z,24.07
2022-09-21T06:26:57.459Z,24.13
2022-09-21T06:29:27.614Z,24.18
2022-09-21T06:31:58.260Z,24.24
2022-09-21T06:34:28.944Z,24.29
2022-09-21T06:37:00.043Z,24.35
2022-09-21T06:39:30.606Z,24.41
2022-09-21T06:42:00.974Z,24.45
2022-09-21T06:44:32.530Z,24.51
2022-09-21T06:47:03.226Z,24.58
2022-09-21T06:49:33.645Z,24.60
2022-09-21T06:52:04.007Z,24.64
2022-09-21T06:54:37.342Z,24.69
2022-09-21T06:57:07.951Z,24.75
2022-09-21T06:59:39.236Z,24.80
2022-09-21T07:02:10.380Z,24.85
2022-09-21T07:04:41.378Z,24.87
2022-09-21T07:07:11.683Z,24.89
2022-09-21T07:12:35.825Z,24.93
2022-09-21T07:15:08.430Z,24.97
2022-09-21T07:17:41.341Z,24.97
2022-09-21T07:20:12.480Z,25.04
2022-09-21T07:22:42.898Z,25.07
2022-09-21T07:25:13.563Z,25.11
2022-09-21T07:27:44.824Z,25.16
2022-09-21T07:30:14.966Z,25.17
2022-09-21T07:32:45.408Z,25.20
2022-09-21T07:35:15.481Z,25.21
2022-09-21T07:37:47.836Z,25.21
2022-09-21T07:40:21.831Z,25.26
2022-09-21T07:42:53.879Z,25.30
2022-09-21T07:45:24.077Z,25.30
2022-09-21T07:47:58.533Z,25.32
2022-09-21T07:50:29.225Z,25.34
2022-09-21T07:53:02.009Z,25.37
2022-09-21T07:55:33.536Z,25.39
2022-09-21T07:58:22.049Z,25.41
2022-09-21T08:00:52.938Z,25.43
2022-09-21T08:03:22.569Z,25.42
2022-09-21T08:05:54.865Z,25.43
2022-09-21T08:08:24.921Z,25.41
2022-09-21T08:10:56.019Z,25.46
2022-09-21T08:13:27.794Z,25.46
2022-09-21T08:16:02.871Z,25.47
2022-09-21T08:18:33.546Z,25.45
2022-09-21T08:21:04.660Z,25.44
2022-09-21T08:23:35.836Z,25.45
2022-09-21T08:26:08.956Z,25.44
2022-09-21T08:28:41.582Z,25.41
2022-09-21T08:31:12.645Z,25.39
2022-09-21T08:33:43.336Z,25.38
2022-09-21T08:36:13.718Z,25.36
2022-09-21T08:38:43.957Z,25.31
2022-09-21T08:41:37.320Z,25.30
2022-09-21T08:44:19.552Z,25.27
2022-09-21T08:47:07.257Z,25.25
2022-09-21T08:49:42.161Z,25.21
2022-09-21T08:52:19.975Z,25.18
2022-09-21T08:54:59.614Z,25.11
2022-09-21T08:57:37.890Z,25.08
2022-09-21T09:00:17.048Z,25.05
2022-09-21T09:03:13.817Z,25.01
2022-09-21T09:05:52.458Z,24.97
2022-09-21T09:08:34.746Z,24.95
2022-09-21T09:11:21.008Z,24.89
2022-09-21T09:13:54.211Z,24.85
2022-09-21T09:17:14.113Z,24.76
2022-09-21T09:20:00.258Z,24.71
2022-09-21T09:22:39.180Z,24.65
2022-09-21T09:25:19.516Z,24.60
2022-09-21T09:27:56.801Z,24.55
2022-09-21T09:30:32.324Z,24.52
2022-09-21T09:33:23.696Z,24.47
2022-09-21T09:36:08.005Z,24.42
2022-09-21T09:39:02.146Z,24.38
2022-09-21T09:41:50.421Z,24.34
2022-09-21T09:44:40.345Z,24.28
2022-09-21T09:47:23.122Z,24.21
2022-09-21T09:50:17.320Z,24.15
2022-09-21T09:52:50.765Z,24.08
2022-09-21T09:55:46.045Z,24.02
2022-09-21T09:58:26.827Z,23.98
2022-09-21T10:01:06.029Z,23.90
2022-09-21T10:03:48.466Z,23.81
2022-09-21T10:06:50.093Z,23.71
2022-09-21T10:09:37.340Z,23.70
2022-09-21T10:12:27.195Z,23.68
2022-09-21T10:15:02.162Z,23.63
2022-09-21T10:17:33.729Z,23.57
2022-09-21T10:20:07.651Z,23.54
2022-09-21T10:22:37.771Z,23.48
2022-09-21T10:25:09.978Z,23.43
2022-09-21T10:27:45.150Z,23.38
2022-09-21T10:30:33.211Z,23.33
2022-09-21T10:33:04.051Z,23.28
2022-09-21T10:35:35.841Z,23.24
2022-09-21T10:38:22.083Z,23.22
2022-09-21T10:40:53.010Z,23.18
2022-09-21T10:43:37.619Z,23.17
2022-09-21T10:46:10.442Z,23.14
2022-09-21T10:48:41.087Z,23.13
2022-09-21T10:51:30.492Z,23.08
2022-09-21T10:54:06.017Z,23.03
2022-09-21T10:56:36.322Z,22.98
2022-09-21T10:59:37.575Z,22.94
2022-09-21T11:02:31.012Z,22.91
2022-09-21T11:05:07.561Z,22.85
2022-09-21T11:08:07.527Z,22.82
2022-09-21T11:10:52.811Z,22.77
2022-09-21T11:13:33.149Z,22.77
2022-09-21T11:16:28.539Z,22.73
2022-09-21T11:19:20.250Z,22.68
2022-09-21T11:22:03.146Z,22.68
2022-09-21T11:24:51.546Z,22.64
2022-09-21T11:27:45.312Z,22.61
2022-09-21T11:30:18.432Z,22.59
2022-09-21T11:32:48.554Z,22.57
2022-09-21T11:35:50.156Z,22.55
2022-09-21T11:38:21.088Z,22.50
2022-09-21T11:41:15.517Z,22.47
2022-09-21T11:44:19.268Z,22.41
2022-09-21T11:47:07.222Z,22.38
2022-09-21T11:49:59.019Z,22.32
2022-09-21T11:53:04.501Z,22.27
2022-09-21T11:56:03.421Z,22.23
2022-09-21T11:58:59.127Z,22.20
2022-09-21T12:02:03.527Z,22.17
2022-09-21T12:04:44.820Z,22.09
2022-09-21T12:07:43.717Z,22.05
2022-09-21T12:10:39.767Z,22.01
2022-09-21T12:13:34.157Z,22.00
2022-09-21T12:16:20.775Z,21.97
2022-09-21T12:19:03.525Z,21.95
2022-09-21T12:21:39.280Z,21.94
2022-09-21T12:24:31.992Z,21.92
2022-09-21T12:27:12.325Z,21.90
2022-09-21T12:29:49.183Z,21.88
2022-09-21T12:32:24.199Z,21.86
2022-09-21T12:35:01.252Z,21.84
2022-09-21T12:37:46.812Z,21.80
2022-09-21T12:40:29.042Z,21.75
2022-09-21T12:43:12.965Z,21.70
2022-09-21T12:45:53.627Z,21.64
2022-09-21T12:48:36.389Z,21.61
2022-09-21T12:51:09.998Z,21.57
2022-09-21T12:53:50.637Z,21.53
2022-09-21T12:56:32.468Z,21.51
2022-09-21T12:59:28.692Z,21.47
2022-09-21T13:02:17.655Z,21.44
2022-09-21T13:05:25.817Z,21.40
2022-09-21T13:08:16.708Z,21.34
2022-09-21T13:11:09.720Z,21.30
2022-09-21T13:13:58.689Z,21.29
2022-09-21T13:16:40.171Z,21.24
2022-09-21T13:19:16.621Z,21.23
2022-09-21T13:21:47.166Z,21.20
2022-09-21T13:24:32.522Z,21.20
2022-09-21T13:27:06.555Z,21.16
2022-09-21T13:29:42.097Z,21.13
2022-09-21T13:32:15.211Z,21.10
2022-09-21T13:34:46.800Z,21.07
2022-09-21T13:37:27.373Z,21.05
2022-09-21T13:40:17.643Z,21.04
2022-09-21T13:42:51.427Z,21.02
2022-09-21T13:45:22.884Z,21.00
2022-09-21T13:48:24.009Z,20.98
2022-09-21T13:50:59.381Z,20.94
2022-09-21T13:53:39.833Z,20.96
2022-09-21T13:56:23.917Z,20.94
2022-09-21T13:58:58.826Z,20.93
2022-09-21T14:01:47.219Z,20.90
2022-09-21T14:04:38.332Z,20.86
2022-09-21T14:07:10.567Z,20.84
2022-09-21T14:09:55.519Z,20.83
2022-09-21T14:12:29.858Z,20.82
2022-09-21T14:15:23.294Z,20.77
2022-09-21T14:18:22.981Z,20.74
2022-09-21T14:21:20.730Z,20.71
2022-09-21T14:24:09.180Z,20.69
2022-09-21T14:26:42.843Z,20.66
2022-09-21T14:29:37.629Z,20.64
2022-09-21T14:32:18.159Z,20.64
2022-09-21T14:34:51.132Z,20.62
2022-09-21T14:38:02.410Z,20.59
2022-09-21T14:40:43.729Z,20.60
2022-09-21T14:43:29.947Z,20.60
2022-09-21T14:46:13.333Z,20.60
2022-09-21T14:48:55.264Z,20.58
2022-09-21T14:52:04.205Z,20.57
2022-09-21T14:54:47.814Z,20.53
2022-09-21T14:57:45.964Z,20.53
2022-09-21T15:00:27.877Z,20.49
2022-09-21T15:03:23.918Z,20.48
2022-09-21T15:06:35.492Z,20.46
2022-09-21T15:09:56.824Z,20.45
2022-09-21T15:12:51.714Z,20.47
2022-09-21T15:15:47.783Z,20.46
2022-09-21T15:18:22.852Z,20.47
2022-09-21T15:21:05.693Z,20.45
2022-09-21T15:23:42.269Z,20.47
2022-09-21T15:26:31.350Z,20.45
2022-09-21T15:29:18.394Z,20.41
2022-09-21T15:31:49.569Z,20.38
2022-09-21T15:34:20.068Z,20.37
2022-09-21T15:36:54.389Z,20.36
2022-09-21T15:39:28.310Z,20.36
2022-09-21T15:42:23.884Z,20.34
2022-09-21T15:45:07.501Z,20.28
2022-09-21T15:47:37.995Z,20.30
2022-09-21T15:50:16.077Z,20.29
2022-09-21T15:52:54.111Z,20.27
2022-09-21T15:55:25.328Z,20.27
2022-09-21T15:57:59.448Z,20.26
2022-09-21T16:00:33.425Z,20.24
2022-09-21T16:03:21.623Z,20.28
2022-09-21T16:05:59.425Z,20.28
2022-09-21T16:08:39.872Z,20.27
2022-09-21T16:11:32.948Z,20.26
2022-09-21T16:14:39.174Z,20.21
2022-09-21T16:17:15.434Z,20.18
2022-09-21T16:19:52.958Z,20.17
2022-09-21T16:22:51.394Z,20.14
2022-09-21T16:25:38.528Z,20.11
2022-09-21T16:28:42.075Z,20.11
2022-09-21T16:31:33.266Z,20.08
2022-09-21T16:34:11.486Z,20.04
2022-09-21T16:36:43.518Z,20.03
2022-09-21T16:39:15.853Z,20.00
2022-09-21T16:41:56.589Z,19.99
2022-09-21T16:44:28.647Z,19.97
2022-09-21T16:47:01.928Z,19.96
2022-09-21T16:49:36.970Z,19.94
2022-09-21T16:52:09.906Z,19.91
2022-09-21T16:54:40.311Z,19.90
2022-09-21T16:57:12.717Z,19.89
2022-09-21T16:59:43.083Z,19.85
2022-09-21T17:02:15.499Z,19.83
2022-09-21T17:04:46.466Z,19.81
2022-09-21T17:07:19.257Z,19.78
2022-09-21T17:09:49.663Z,19.76
2022-09-21T17:12:20.659Z,19.72
2022-09-21T17:14:52.948Z,19.71
2022-09-21T17:17:28.078Z,19.68
2022-09-21T17:19:58.202Z,19.67
2022-09-21T17:22:30.912Z,19.63
2022-09-21T17:25:02.025Z,19.60
2022-09-21T17:27:33.444Z,19.56
2022-09-21T17:30:05.619Z,19.53
2022-09-21T17:32:38.601Z,19.51
2022-09-21T17:35:41.427Z,19.47
2022-09-21T17:38:14.538Z,19.41
2022-09-21T17:40:45.126Z,19.37
2022-09-21T17:43:34.493Z,19.35
2022-09-21T17:46:18.158Z,19.32
2022-09-21T17:48:48.629Z,19.30
2022-09-21T17:51:38.983Z,19.28
2022-09-21T17:54:09.470Z,19.28
2022-09-21T17:56:46.205Z,19.26
2022-09-21T17:59:37.084Z,19.25
2022-09-21T18:02:28.146Z,19.23
2022-09-21T18:05:05.187Z,19.22
2022-09-21T18:07:36.244Z,19.23
2022-09-21T18:10:07.593Z,19.26
2022-09-21T18:12:57.598Z,19.27
2022-09-21T18:15:52.807Z,19.27
2022-09-21T18:18:52.273Z,19.28
2022-09-21T18:21:26.575Z,19.26
2022-09-21T18:24:21.024Z,19.28
2022-09-21T18:26:53.853Z,19.28
2022-09-21T18:29:41.245Z,19.28
2022-09-21T18:32:35.931Z,19.28
2022-09-21T18:35:12.046Z,19.27
2022-09-21T18:38:14.559Z,19.26
2022-09-21T18:41:35.285Z,19.26
2022-09-21T18:44:26.762Z,19.25
2022-09-21T18:47:16.858Z,19.22
2022-09-21T18:49:51.082Z,19.20
2022-09-21T18:52:31.404Z,19.18
2022-09-21T18:55:02.340Z,19.16
2022-09-21T18:57:33.822Z,19.12
2022-09-21T19:00:05.007Z,19.11
2022-09-21T19:02:35.616Z,19.11
2022-09-21T19:05:06.727Z,19.09
2022-09-21T19:07:40.878Z,19.05
2022-09-21T19:10:22.924Z,19.04
2022-09-21T19:13:28.541Z,19.04
2022-09-21T19:16:33.547Z,19.04
2022-09-21T19:19:53.717Z,19.02
2022-09-21T19:22:54.992Z,19.01
2022-09-21T19:25:49.902Z,18.97
2022-09-21T19:28:50.633Z,18.94
2022-09-21T19:31:21.293Z,18.93
2022-09-21T19:33:51.962Z,18.90
2022-09-21T19:36:25.532Z,18.89
2022-09-21T19:38:55.934Z,18.86
2022-09-21T19:41:46.153Z,18.85
2022-09-21T19:44:55.608Z,18.84
2022-09-21T19:47:39.234Z,18.81
2022-09-21T19:50:19.792Z,18.83
2022-09-21T19:52:50.230Z,18.83
2022-09-21T19:55:41.919Z,18.83
2022-09-21T19:58:30.335Z,18.84
2022-09-21T20:01:00.792Z,18.85
2022-09-21T20:03:41.819Z,18.86
2022-09-21T20:06:19.726Z,18.84
2022-09-21T20:09:24.128Z,18.83
2022-09-21T20:11:56.948Z,18.81
2022-09-21T20:14:41.571Z,18.81
2022-09-21T20:17:18.239Z,18.80
2022-09-21T20:20:13.327Z,18.79
2022-09-21T20:22:44.290Z,18.79
2022-09-21T20:25:21.407Z,18.77
2022-09-21T20:27:54.606Z,18.78
2022-09-21T20:30:34.213Z,18.76
2022-09-21T20:33:13.464Z,18.73
2022-09-21T20:35:45.478Z,18.71
2022-09-21T20:38:16.424Z,18.71
2022-09-21T20:40:47.518Z,18.67
2022-09-21T20:43:17.843Z,18.62
2022-09-21T20:45:50.558Z,18.63
2022-09-21T20:48:21.337Z,18.61
2022-09-21T20:50:52.524Z,18.61
2022-09-21T20:53:23.089Z,18.59
2022-09-21T20:55:59.194Z,18.57
2022-09-21T20:58:29.800Z,18.54
2022-09-21T21:01:06.087Z,18.53
2022-09-21T21:03:36.394Z,18.53
2022-09-21T21:06:24.721Z,18.52
2022-09-21T21:08:54.979Z,18.54
2022-09-21T21:11:26.877Z,18.53
2022-09-21T21:13:58.399Z,18.52
2022-09-21T21:16:28.822Z,18.50
2022-09-21T21:18:59.141Z,18.45
2022-09-21T21:21:29.769Z,18.41
2022-09-21T21:24:17.984Z,18.40
2022-09-21T21:27:01.908Z,18.42
2022-09-21T21:29:34.147Z,18.40
2022-09-21T21:32:05.227Z,18.37
2022-09-21T21:34:35.377Z,18.35
2022-09-21T21:37:05.707Z,18.34
2022-09-21T21:39:35.727Z,18.35
2022-09-21T21:42:09.047Z,18.35
2022-09-21T21:44:40.171Z,18.32
2022-09-21T21:47:38.124Z,18.28
2022-09-21T21:50:03.602Z,18.27
2022-09-21T21:52:34.182Z,18.26
2022-09-21T21:55:06.687Z,18.23
2022-09-21T21:57:37.185Z,18.21
2022-09-21T22:00:07.470Z,18.22
2022-09-21T22:02:37.414Z,18.19
2022-09-21T22:05:08.063Z,18.20
2022-09-21T22:07:39.012Z,18.19
2022-09-21T22:10:10.475Z,18.17
2022-09-21T22:12:41.064Z,18.16
2022-09-21T22:15:11.081Z,18.15
2022-09-21T22:17:41.654Z,18.13
2022-09-21T22:20:11.963Z,18.13
2022-09-21T22:22:42.469Z,18.15
2022-09-21T22:25:12.625Z,18.14
2022-09-21T22:27:42.749Z,18.16
2022-09-21T22:30:13.735Z,18.16
2022-09-21T22:32:43.985Z,18.12
2022-09-21T22:35:14.775Z,18.12
2022-09-21T22:37:44.955Z,18.11
2022-09-21T22:40:15.722Z,18.11
2022-09-21T22:42:48.401Z,18.13
2022-09-21T22:45:19.326Z,18.14
2022-09-21T22:47:53.886Z,18.17
2022-09-21T22:50:24.638Z,18.22
2022-09-21T22:52:55.123Z,18.25
2022-09-21T22:55:25.406Z,18.31
2022-09-21T22:57:55.546Z,18.38
2022-09-21T23:00:26.833Z,18.42
2022-09-21T23:02:58.440Z,18.46
2022-09-21T23:05:29.315Z,18.53
2022-09-21T23:08:02.860Z,18.57
2022-09-21T23:10:33.186Z,18.60
2022-09-21T23:13:03.729Z,18.65
2022-09-21T23:15:33.876Z,18.70
2022-09-21T23:18:04.348Z,18.73
2022-09-21T23:20:35.044Z,18.76
2022-09-21T23:23:05.181Z,18.83
2022-09-21T23:25:35.559Z,18.87
2022-09-21T23:28:05.743Z,18.91
2022-09-21T23:30:35.989Z,18.97
2022-09-21T23:33:06.711Z,19.00
2022-09-21T23:35:39.807Z,19.01
2022-09-21T23:38:10.268Z,19.03
2022-09-21T23:40:41.368Z,19.08
2022-09-21T23:43:13.008Z,19.10
2022-09-21T23:45:44.651Z,19.15
2022-09-21T23:48:15.043Z,19.12
2022-09-21T23:50:46.039Z,19.13
2022-09-21T23:53:16.427Z,19.11
2022-09-21T23:55:46.668Z,19.14
2022-09-21T23:58:17.071Z,19.20
